Time;durP1;ratioP1;P1;durP2;ratioP2;P2;SDS_P1;SDS_P2;PMS_P1;PMS_P2;Temp;Humidity;BMP_temperature;BMP_pressure;BME280_temperature;BME280_humidity;BME280_pressure;Samples;Min_cycle;Max_cycle;Signal;HPM_P1;HPM_P2
2022/07/06 00:01:03;;;;;;;8.00;2.42;;;;;;;26.43;48.29;98883.31;5139385;27;20103;-63
2022/07/06 00:03:30;;;;;;;5.47;2.38;;;;;;;26.50;47.95;98870.31;5152441;27;20508;-63
2022/07/06 00:05:57;;;;;;;7.18;2.42;;;;;;;26.50;47.93;98872.97;5135085;27;20082;-63
2022/07/06 00:08:24;;;;;;;6.97;2.25;;;;;;;26.53;47.84;98878.94;5115706;27;20088;-63
2022/07/06 00:10:51;;;;;;;7.05;2.47;;;;;;;26.59;47.58;98891.00;5131894;27;20081;-63
2022/07/06 00:13:19;;;;;;;8.93;2.50;;;;;;;26.60;47.83;98907.88;5143251;27;20038;-63
2022/07/06 00:15:47;;;;;;;5.25;2.20;;;;;;;26.59;47.54;98900.84;5145853;27;20101;-63
2022/07/06 00:18:14;;;;;;;2.75;2.10;;;;;;;26.61;47.39;98902.44;5149745;27;20070;-63
2022/07/06 00:20:41;;;;;;;8.35;2.53;;;;;;;26.65;47.58;98903.03;5153708;27;20050;-63
2022/07/06 00:23:09;;;;;;;5.82;2.33;;;;;;;26.64;47.68;98907.53;5137580;27;20047;-63
2022/07/06 00:25:35;;;;;;;5.85;2.30;;;;;;;26.67;47.57;98901.09;5134017;27;20496;-63
2022/07/06 00:28:02;;;;;;;4.32;2.20;;;;;;;26.71;47.39;98899.88;5140027;27;20524;-63
2022/07/06 00:30:30;;;;;;;6.07;2.22;;;;;;;26.68;47.65;98901.00;5156420;27;20046;-63
2022/07/06 00:32:58;;;;;;;5.03;2.30;;;;;;;26.66;47.56;98899.41;5142997;27;20043;-63
2022/07/06 00:35:25;;;;;;;3.33;2.10;;;;;;;26.72;47.82;98901.59;5116181;27;20047;-63
2022/07/06 00:37:52;;;;;;;2.28;2.10;;;;;;;26.73;47.58;98900.63;5153774;27;20074;-63
2022/07/06 00:40:18;;;;;;;5.60;2.20;;;;;;;26.71;47.59;98903.44;5146056;27;20381;-63
2022/07/06 00:42:46;;;;;;;2.58;1.90;;;;;;;26.76;47.39;98896.88;5132548;27;20043;-63
2022/07/06 00:45:14;;;;;;;2.53;1.88;;;;;;;26.79;47.22;98894.78;5132689;27;20078;-63
2022/07/06 00:47:42;;;;;;;4.50;2.20;;;;;;;26.79;47.30;98901.97;5138528;27;20075;-63
2022/07/06 00:50:18;;;;;;;2.72;1.88;;;;;;;26.81;47.29;98892.88;5138191;27;20081;-63
2022/07/06 00:52:45;;;;;;;2.53;1.98;;;;;;;26.79;47.23;98889.44;5168144;27;20042;-63
2022/07/06 00:55:12;;;;;;;3.35;1.90;;;;;;;26.80;47.17;98899.19;5157764;27;20221;-63
2022/07/06 00:57:39;;;;;;;2.42;1.60;;;;;;;26.77;47.18;98894.06;5165800;27;20103;-63
2022/07/06 01:00:07;;;;;;;2.28;1.90;;;;;;;26.71;46.75;98887.41;5161095;27;20103;-63
2022/07/06 01:02:34;;;;;;;2.33;1.80;;;;;;;26.78;46.71;98887.75;5149865;27;20137;-63
2022/07/06 01:05:03;;;;;;;2.70;1.73;;;;;;;26.77;46.94;98896.72;5151915;27;20145;-63
2022/07/06 01:07:31;;;;;;;1.65;1.50;;;;;;;26.76;46.90;98884.34;5148429;27;20058;-63
2022/07/06 01:09:58;;;;;;;2.55;1.60;;;;;;;26.77;46.51;98895.88;5132944;27;20096;-63
2022/07/06 01:12:25;;;;;;;2.88;1.60;;;;;;;26.76;47.05;98891.53;5133666;27;20044;-63
2022/07/06 01:14:52;;;;;;;3.92;1.80;;;;;;;26.76;47.23;98899.56;5144343;27;20043;-63
2022/07/06 01:17:19;;;;;;;2.47;1.60;;;;;;;26.74;47.34;98907.69;5136488;27;20082;-63
2022/07/06 01:19:46;;;;;;;5.10;1.77;;;;;;;26.78;47.79;98897.59;5157539;27;20039;-63
2022/07/06 01:22:14;;;;;;;3.55;1.80;;;;;;;26.81;47.73;98905.38;5155451;27;20199;-63
2022/07/06 01:24:41;;;;;;;4.18;1.70;;;;;;;26.71;47.25;98907.91;5157245;27;20047;-63
2022/07/06 01:27:07;;;;;;;12.80;1.88;;;;;;;26.79;47.73;98901.97;5142025;27;20086;-63
2022/07/06 01:29:36;;;;;;;4.72;1.90;;;;;;;26.79;47.56;98900.13;5150792;27;20038;-63
2022/07/06 01:32:03;;;;;;;6.85;1.70;;;;;;;26.80;47.89;98907.19;5150995;27;20039;-63
2022/07/06 01:34:30;;;;;;;4.05;1.55;;;;;;;26.79;47.92;98904.63;5150668;27;20078;-63
2022/07/06 01:36:57;;;;;;;6.78;1.70;;;;;;;26.80;47.76;98917.88;5142727;27;20130;-63
2022/07/06 01:39:26;;;;;;;4.78;1.70;;;;;;;26.78;47.86;98913.63;5125438;27;20042;-63
2022/07/06 01:41:53;;;;;;;5.97;1.90;;;;;;;26.74;47.57;98913.03;5138156;27;20095;-63
2022/07/06 01:44:19;;;;;;;3.03;1.50;;;;;;;26.78;48.02;98922.50;5155013;27;20095;-63
2022/07/06 01:46:46;;;;;;;3.20;1.55;;;;;;;26.77;48.12;98926.13;5156832;27;20092;-63
2022/07/06 01:49:13;;;;;;;4.38;1.52;;;;;;;26.71;48.29;98927.50;5114743;27;20561;-63
2022/07/06 01:51:40;;;;;;;2.58;1.10;;;;;;;26.74;48.43;98936.25;5154884;27;20099;-63
2022/07/06 01:54:07;;;;;;;5.85;1.30;;;;;;;26.68;48.54;98945.56;5140158;27;20047;-63
2022/07/06 01:56:35;;;;;;;3.10;1.30;;;;;;;26.75;48.45;98941.44;5154678;27;20493;-63
2022/07/06 01:59:02;;;;;;;7.65;1.45;;;;;;;26.74;48.23;98946.94;5155190;27;20043;-63
2022/07/06 02:01:29;;;;;;;3.63;1.25;;;;;;;26.66;49.00;98947.53;5154368;27;20458;-63
2022/07/06 02:03:56;;;;;;;1.75;1.02;;;;;;;26.66;48.63;98947.53;5156346;27;20173;-63
2022/07/06 02:06:23;;;;;;;5.75;1.20;;;;;;;26.65;48.76;98952.00;5142714;27;20047;-63
2022/07/06 02:08:51;;;;;;;1.90;1.30;;;;;;;26.66;48.42;98959.06;5117960;27;20078;-63
2022/07/06 02:11:18;;;;;;;3.75;1.25;;;;;;;26.61;48.68;98955.88;5140057;27;20042;-63
2022/07/06 02:13:46;;;;;;;8.23;1.35;;;;;;;26.51;48.79;98963.72;5154851;27;20445;-63
2022/07/06 02:16:13;;;;;;;3.45;1.38;;;;;;;26.50;49.23;98969.16;5148224;27;20134;-63
2022/07/06 02:18:40;;;;;;;4.97;1.20;;;;;;;26.42;49.06;98966.22;5141245;27;20039;-63
2022/07/06 02:21:07;;;;;;;4.88;1.17;;;;;;;26.47;49.21;98974.75;5153708;27;20074;-63
2022/07/06 02:23:34;;;;;;;6.18;1.25;;;;;;;26.51;48.95;98977.06;5155849;27;20082;-63
2022/07/06 02:26:01;;;;;;;3.95;1.15;;;;;;;26.47;49.12;98983.63;5153975;27;20485;-63
2022/07/06 02:28:28;;;;;;;3.35;1.20;;;;;;;26.43;49.23;98984.81;5152633;27;20039;-63
2022/07/06 02:30:56;;;;;;;4.25;1.00;;;;;;;26.37;49.09;98995.97;5151662;27;20088;-63
2022/07/06 02:33:23;;;;;;;2.65;0.90;;;;;;;26.29;49.21;98999.22;5142641;27;20111;-63
2022/07/06 02:35:50;;;;;;;1.92;0.80;;;;;;;26.18;49.53;99001.00;5134956;27;20513;-63
2022/07/06 02:38:17;;;;;;;3.83;1.20;;;;;;;26.23;49.55;99004.16;5134966;27;20071;-63
2022/07/06 02:40:44;;;;;;;1.98;1.00;;;;;;;26.22;49.53;99005.13;5135222;27;20047;-63
2022/07/06 02:43:11;;;;;;;5.35;1.42;;;;;;;26.22;49.80;99002.47;5142232;27;20050;-63
2022/07/06 02:45:38;;;;;;;2.75;0.80;;;;;;;26.19;49.76;99008.03;5134711;27;20462;-62
2022/07/06 02:48:06;;;;;;;5.90;1.17;;;;;;;26.20;50.21;99004.41;5147440;27;20545;-63
2022/07/06 02:50:33;;;;;;;7.55;1.40;;;;;;;26.08;50.76;99003.50;5147550;27;20501;-63
2022/07/06 02:53:01;;;;;;;3.33;1.30;;;;;;;26.08;50.20;99003.50;5155325;27;20147;-63
2022/07/06 02:55:28;;;;;;;7.50;1.25;;;;;;;26.12;50.44;99005.81;5162355;27;20053;-62
2022/07/06 02:57:55;;;;;;;5.22;1.30;;;;;;;26.05;50.32;99015.22;5157638;27;20087;-63
2022/07/06 03:00:23;;;;;;;4.78;1.10;;;;;;;26.08;50.48;99011.50;5131162;27;20071;-62
2022/07/06 03:02:49;;;;;;;5.72;1.25;;;;;;;26.08;50.69;99012.34;5151410;27;20047;-62
2022/07/06 03:05:17;;;;;;;4.88;0.95;;;;;;;25.96;50.85;99018.59;5158784;27;20095;-63
2022/07/06 03:07:44;;;;;;;7.82;1.45;;;;;;;26.17;50.60;99028.66;5163162;27;20146;-63
2022/07/06 03:10:11;;;;;;;5.22;1.10;;;;;;;26.20;50.52;99025.75;5123372;27;20055;-63
2022/07/06 03:12:38;;;;;;;6.28;1.23;;;;;;;26.17;50.64;99026.81;5136789;27;20076;-63
2022/07/06 03:15:09;;;;;;;3.90;1.20;;;;;;;26.23;50.40;99025.50;5135184;27;20075;-63
2022/07/06 03:17:36;;;;;;;5.03;1.48;;;;;;;26.09;50.40;99030.09;5161691;27;20035;-63
2022/07/06 03:20:03;;;;;;;6.28;1.23;;;;;;;26.01;50.54;99023.59;5154731;27;20082;-63
2022/07/06 03:22:32;;;;;;;6.22;1.20;;;;;;;25.88;50.84;99028.91;5153217;27;20099;-63
2022/07/06 03:24:59;;;;;;;4.25;1.00;;;;;;;25.80;51.10;99026.81;5153233;27;20053;-63
2022/07/06 03:27:26;;;;;;;1.95;1.05;;;;;;;25.77;50.72;99028.88;5121061;27;20054;-63
2022/07/06 03:29:53;;;;;;;1.40;0.90;;;;;;;25.72;51.02;99032.69;5153950;27;20038;-63
2022/07/06 03:32:20;;;;;;;5.93;1.30;;;;;;;25.71;51.02;99020.34;5135339;27;20083;-63
2022/07/06 03:34:46;;;;;;;2.85;0.98;;;;;;;25.71;50.80;99024.84;5154608;27;20070;-62
2022/07/06 03:37:13;;;;;;;2.83;1.10;;;;;;;25.65;50.98;99018.13;5133973;27;20520;-63
2022/07/06 03:39:41;;;;;;;3.55;1.17;;;;;;;25.60;51.04;99020.25;5133646;27;20122;-63
2022/07/06 03:42:09;;;;;;;2.67;0.90;;;;;;;25.60;51.10;99020.25;5154268;27;20050;-63
2022/07/06 03:44:35;;;;;;;1.05;0.80;;;;;;;25.62;51.18;99026.31;5154433;27;20095;-63
2022/07/06 03:47:02;;;;;;;2.55;1.00;;;;;;;25.59;50.93;99026.56;5154233;27;20047;-63
2022/07/06 03:49:29;;;;;;;2.38;1.10;;;;;;;25.62;50.84;99021.00;5153509;27;20107;-63
2022/07/06 03:51:56;;;;;;;2.33;1.00;;;;;;;25.64;50.99;99029.72;5135777;27;20096;-63
2022/07/06 03:54:23;;;;;;;2.13;1.05;;;;;;;25.60;51.03;99030.06;5137300;27;20081;-63
2022/07/06 03:56:52;;;;;;;3.80;1.40;;;;;;;25.71;50.79;99036.34;5153494;27;20038;-63
2022/07/06 03:59:19;;;;;;;2.00;0.90;;;;;;;25.68;50.82;99031.22;5150986;27;20078;-62
2022/07/06 04:01:46;;;;;;;1.92;1.08;;;;;;;25.68;50.87;99036.56;5124588;27;20059;-62
2022/07/06 04:04:13;;;;;;;2.25;1.10;;;;;;;25.74;51.06;99038.81;5139561;27;20126;-62
2022/07/06 04:06:39;;;;;;;4.88;0.98;;;;;;;25.76;50.76;99037.81;5159095;27;20042;-62
2022/07/06 04:09:06;;;;;;;2.80;1.10;;;;;;;25.86;50.78;99036.19;5154670;27;20038;-62
2022/07/06 04:11:33;;;;;;;1.27;0.90;;;;;;;25.86;50.65;99041.53;5153614;27;20663;-62
2022/07/06 04:14:02;;;;;;;1.33;1.10;;;;;;;25.96;50.43;99047.09;5153930;27;20107;-62
2022/07/06 04:16:28;;;;;;;3.45;1.10;;;;;;;25.96;50.29;99045.28;5127444;27;20541;-62
2022/07/06 04:18:55;;;;;;;1.00;1.00;;;;;;;26.05;50.49;99049.94;5115804;27;20106;-62
2022/07/06 04:21:22;;;;;;;2.83;1.13;;;;;;;26.05;49.82;99044.59;5133137;27;20573;-62
2022/07/06 04:23:49;;;;;;;2.47;1.10;;;;;;;26.01;49.74;99043.13;5133045;27;20043;-62
2022/07/06 04:26:17;;;;;;;9.82;1.38;;;;;;;26.02;50.17;99047.50;5129382;27;20078;-62
2022/07/06 04:28:43;;;;;;;2.35;1.13;;;;;;;26.00;50.34;99052.09;5134909;27;20096;-62
2022/07/06 04:31:14;;;;;;;2.85;1.48;;;;;;;25.96;50.26;99055.97;5152133;27;20042;-61
2022/07/06 04:33:41;;;;;;;2.70;1.40;;;;;;;25.97;49.68;99059.47;5146001;27;20058;-63
2022/07/06 04:36:08;;;;;;;2.92;1.48;;;;;;;25.98;49.72;99066.50;5113454;28;20387;-62
2022/07/06 04:38:35;;;;;;;2.42;1.50;;;;;;;25.97;49.59;99064.81;5147571;27;20127;-62
2022/07/06 04:41:02;;;;;;;4.63;1.42;;;;;;;26.00;49.91;99062.78;5151900;27;20562;-61
2022/07/06 04:43:31;;;;;;;3.70;1.50;;;;;;;26.10;50.34;99068.31;5134474;27;20464;-61
2022/07/06 04:45:58;;;;;;;2.90;1.42;;;;;;;26.11;49.60;99070.00;5133672;27;20089;-62
2022/07/06 04:48:26;;;;;;;4.45;1.48;;;;;;;26.04;49.31;99072.28;5153179;27;20511;-64
2022/07/06 04:50:53;;;;;;;5.07;1.73;;;;;;;25.85;49.56;99069.19;5152254;27;20039;-63
2022/07/06 04:53:20;;;;;;;11.27;1.90;;;;;;;25.88;50.03;99074.28;5152963;27;20047;-73
2022/07/06 04:55:46;;;;;;;6.18;1.75;;;;;;;26.04;49.98;99068.75;5149882;27;20078;-73
2022/07/06 04:58:14;;;;;;;2.47;1.67;;;;;;;26.11;49.26;99078.88;5147736;27;20087;-73
2022/07/06 05:00:41;;;;;;;4.32;1.55;;;;;;;26.21;49.05;99080.84;5131354;27;20134;-72
2022/07/06 05:03:08;;;;;;;4.70;1.90;;;;;;;26.23;48.30;99082.47;5139065;27;20101;-72
2022/07/06 05:05:37;;;;;;;4.93;1.77;;;;;;;26.29;48.14;99089.19;5134438;27;20096;-73
2022/07/06 05:08:05;;;;;;;3.63;1.90;;;;;;;26.33;48.08;99091.50;5150919;27;20050;-72
2022/07/06 05:10:32;;;;;;;2.17;1.98;;;;;;;26.35;47.88;99099.41;5147989;27;20039;-72
2022/07/06 05:12:59;;;;;;;2.00;1.80;;;;;;;26.39;47.58;99090.19;5101377;28;20560;-72
2022/07/06 05:15:26;;;;;;;2.10;1.90;;;;;;;26.42;47.40;99097.97;5146295;27;20540;-72
2022/07/06 05:17:53;;;;;;;2.78;2.20;;;;;;;26.43;47.19;99090.84;5153232;27;20122;-72
2022/07/06 05:20:20;;;;;;;2.88;2.05;;;;;;;26.44;47.32;99090.69;5153232;27;20043;-72
2022/07/06 05:22:48;;;;;;;3.40;2.00;;;;;;;26.50;47.08;99097.41;5141035;27;20047;-72
2022/07/06 05:25:15;;;;;;;4.47;2.25;;;;;;;26.52;47.13;99092.78;5132090;28;20047;-72
2022/07/06 05:27:41;;;;;;;4.47;2.20;;;;;;;26.49;46.84;99093.88;5132337;28;20489;-72
2022/07/06 05:30:10;;;;;;;9.05;3.15;;;;;;;26.52;46.72;99092.78;5132116;28;20501;-73
2022/07/06 05:32:37;;;;;;;3.03;2.58;;;;;;;25.45;48.70;99093.34;5132421;27;20043;-72
2022/07/06 05:35:04;;;;;;;5.53;2.70;;;;;;;25.09;49.18;99100.25;5133999;27;20439;-72
2022/07/06 05:37:32;;;;;;;5.18;2.70;;;;;;;24.64;50.43;99107.69;5140743;27;20119;-72
2022/07/06 05:40:01;;;;;;;5.32;2.67;;;;;;;24.74;51.84;99103.50;5132099;28;20089;-72
2022/07/06 05:42:28;;;;;;;6.68;2.90;;;;;;;24.63;50.81;99101.53;5132147;28;20481;-72
2022/07/06 05:44:56;;;;;;;3.50;2.60;;;;;;;24.36;52.21;99102.34;5148350;27;20038;-72
2022/07/06 05:50:14;;;;;;;5.47;3.10;;;;;;;23.81;53.67;99123.63;5134985;27;20099;-72
2022/07/06 05:52:41;;;;;;;4.27;2.83;;;;;;;23.80;53.29;99121.94;5152734;27;20061;-72
2022/07/06 05:55:11;;;;;;;5.32;2.85;;;;;;;23.45;53.97;99131.09;5152795;27;20078;-73
2022/07/06 05:57:38;;;;;;;5.82;3.10;;;;;;;23.43;54.92;99125.03;5152665;27;20500;-72
2022/07/06 06:00:05;;;;;;;7.53;3.05;;;;;;;23.25;55.10;99134.97;5152726;27;20106;-72
2022/07/06 06:02:39;;;;;;;5.18;2.92;;;;;;;23.09;56.11;99131.50;5156177;27;20043;-72
2022/07/06 06:05:07;;;;;;;5.47;3.20;;;;;;;23.00;56.27;99136.38;5156485;27;20039;-72
2022/07/06 06:07:35;;;;;;;5.07;3.17;;;;;;;22.85;56.80;99129.31;5141321;27;20047;-71
2022/07/06 06:10:03;;;;;;;6.45;3.17;;;;;;;22.86;56.73;99131.03;5135530;27;20043;-63
2022/07/06 06:12:31;;;;;;;5.72;3.10;;;;;;;22.80;56.82;99132.25;5135679;27;20787;-70
2022/07/06 06:14:58;;;;;;;6.57;2.80;;;;;;;23.20;55.28;99129.06;5135494;27;20043;-69
2022/07/06 06:17:25;;;;;;;8.68;3.03;;;;;;;23.14;55.79;99130.28;5135087;27;20083;-69
2022/07/06 06:19:52;;;;;;;5.63;3.10;;;;;;;23.13;55.60;99135.72;5158402;27;20042;-69
2022/07/06 06:22:18;;;;;;;6.65;3.10;;;;;;;23.36;55.47;99144.94;5157375;27;20067;-69
2022/07/06 06:24:45;;;;;;;5.97;2.97;;;;;;;23.47;55.22;99136.31;5176801;27;20658;-65
2022/07/06 06:27:12;;;;;;;7.82;3.30;;;;;;;23.17;56.14;99150.53;5143697;27;20509;-63
2022/07/06 06:29:41;;;;;;;7.30;3.17;;;;;;;23.36;55.10;99137.84;5152060;27;20095;-64
2022/07/06 06:32:08;;;;;;;7.43;3.28;;;;;;;23.76;54.32;99134.53;5117673;27;20482;-62
2022/07/06 06:34:35;;;;;;;5.47;3.05;;;;;;;24.04;53.50;99136.38;5134903;27;20087;-62
2022/07/06 06:37:01;;;;;;;5.85;2.90;;;;;;;24.29;52.73;99129.47;5134946;27;20439;-62
2022/07/06 06:39:28;;;;;;;6.05;2.90;;;;;;;24.17;52.49;99134.66;5116963;27;20445;-63
2022/07/06 06:41:55;;;;;;;6.80;2.70;;;;;;;24.22;52.52;99139.66;5135017;27;20043;-63
2022/07/06 06:44:22;;;;;;;4.85;3.00;;;;;;;24.47;51.65;99146.09;5116567;27;20509;-63
2022/07/06 06:46:51;;;;;;;4.07;2.70;;;;;;;24.37;52.10;99148.47;5135085;27;20484;-63
2022/07/06 06:49:19;;;;;;;4.93;2.65;;;;;;;24.53;51.56;99148.38;5134913;27;20047;-62
2022/07/06 06:51:45;;;;;;;4.35;2.90;;;;;;;24.54;51.60;99156.28;5134921;27;20092;-63
2022/07/06 06:54:12;;;;;;;4.80;2.80;;;;;;;24.55;51.95;99149.97;5120184;27;20078;-62
2022/07/06 06:56:39;;;;;;;4.97;2.80;;;;;;;24.74;51.61;99160.28;5157287;27;20038;-62
2022/07/06 06:59:06;;;;;;;4.60;2.67;;;;;;;24.67;51.90;99160.78;5164840;27;20047;-62
2022/07/06 07:01:33;;;;;;;5.18;2.67;;;;;;;24.78;51.37;99158.28;5153269;27;20092;-63
2022/07/06 07:04:02;;;;;;;3.85;2.70;;;;;;;24.86;51.19;99157.78;5155305;27;20046;-63
2022/07/06 07:06:29;;;;;;;3.70;2.70;;;;;;;24.73;51.74;99161.22;5154903;27;20070;-62
2022/07/06 07:08:56;;;;;;;3.03;2.70;;;;;;;24.73;51.88;99168.38;5141199;27;20100;-62
2022/07/06 07:11:23;;;;;;;3.85;2.60;;;;;;;24.58;51.87;99172.03;5133970;27;20447;-62
2022/07/06 07:13:50;;;;;;;5.10;3.00;;;;;;;24.49;51.79;99171.66;5134179;27;20039;-61
2022/07/06 07:16:16;;;;;;;4.93;2.88;;;;;;;24.27;52.59;99168.63;5115806;27;20043;-61
2022/07/06 07:18:43;;;;;;;3.20;2.72;;;;;;;24.37;52.32;99169.78;5116969;27;20160;-61
2022/07/06 07:21:12;;;;;;;3.72;2.55;;;;;;;24.36;52.48;99170.72;5136020;27;20042;-61
2022/07/06 07:23:38;;;;;;;3.63;2.63;;;;;;;24.44;52.17;99176.41;5132140;27;20047;-62
2022/07/06 07:26:06;;;;;;;4.15;2.80;;;;;;;24.73;51.67;99187.03;5153075;27;20043;-62
2022/07/06 07:28:33;;;;;;;4.07;2.50;;;;;;;24.92;50.97;99184.84;5154736;27;20091;-62
2022/07/06 07:31:00;;;;;;;4.43;2.80;;;;;;;25.10;50.38;99196.09;5136471;27;20056;-62
2022/07/06 07:33:27;;;;;;;4.43;2.70;;;;;;;25.26;49.88;99195.97;5144896;27;20088;-62
2022/07/06 07:35:54;;;;;;;3.80;2.70;;;;;;;25.38;49.80;99199.63;5133989;27;20078;-62
2022/07/06 07:38:22;;;;;;;2.88;2.53;;;;;;;25.47;49.31;99198.13;5133908;27;20087;-62
2022/07/06 07:40:49;;;;;;;4.18;2.50;;;;;;;25.57;49.26;99206.34;5144861;27;20078;-62
2022/07/06 07:43:15;;;;;;;3.63;2.50;;;;;;;25.64;49.07;99211.16;5144296;27;20047;-62
2022/07/06 07:45:42;;;;;;;4.40;2.80;;;;;;;25.70;48.75;99213.41;5133531;27;20099;-62
2022/07/06 07:48:09;;;;;;;3.70;2.50;;;;;;;25.77;48.39;99200.50;5133739;27;20070;-62
2022/07/06 07:50:36;;;;;;;3.45;2.40;;;;;;;25.81;48.16;99211.84;5133654;27;20049;-62
2022/07/06 07:53:03;;;;;;;3.70;2.50;;;;;;;25.87;47.90;99204.25;5115110;27;20122;-62
2022/07/06 07:55:31;;;;;;;3.88;2.40;;;;;;;25.93;47.95;99205.66;5132960;27;20047;-62
2022/07/06 07:57:57;;;;;;;3.20;2.50;;;;;;;25.96;47.55;99205.47;5149837;27;20078;-62
2022/07/06 08:00:25;;;;;;;5.72;2.53;;;;;;;26.00;47.25;99212.28;5152096;27;20134;-62
2022/07/06 08:02:52;;;;;;;3.03;2.20;;;;;;;26.03;47.03;99222.72;5137000;27;20117;-62
2022/07/06 08:05:18;;;;;;;3.42;2.60;;;;;;;26.07;46.56;99212.69;5133310;27;20082;-62
2022/07/06 08:07:45;;;;;;;3.80;2.30;;;;;;;26.10;46.70;99207.16;5133185;27;20043;-62
2022/07/06 08:10:12;;;;;;;3.30;2.42;;;;;;;26.13;46.46;99218.47;5132863;27;20092;-62
2022/07/06 08:12:40;;;;;;;2.88;2.35;;;;;;;26.16;46.43;99232.56;5137342;27;20074;-62
2022/07/06 08:15:08;;;;;;;3.67;2.60;;;;;;;26.17;46.17;99224.41;5153677;27;20043;-62
2022/07/06 08:17:35;;;;;;;2.65;2.20;;;;;;;26.18;46.11;99230.63;5153440;27;20051;-62
2022/07/06 08:20:02;;;;;;;4.20;2.63;;;;;;;26.19;45.88;99214.50;5152726;27;20096;-62
2022/07/06 08:22:29;;;;;;;3.58;2.40;;;;;;;26.20;45.53;99221.53;5116312;27;20058;-62
2022/07/06 08:24:56;;;;;;;4.70;2.65;;;;;;;26.24;45.43;99232.88;5132122;27;20047;-62
2022/07/06 08:27:23;;;;;;;3.88;2.45;;;;;;;26.27;45.49;99230.00;5133120;27;20047;-62
2022/07/06 08:29:51;;;;;;;3.65;2.50;;;;;;;26.29;45.37;99220.06;5137198;27;20480;-62
2022/07/06 08:32:19;;;;;;;4.30;2.50;;;;;;;26.30;45.15;99240.44;5153498;27;20099;-62
2022/07/06 08:34:47;;;;;;;4.63;2.42;;;;;;;26.32;45.00;99238.50;5151912;27;20149;-62
2022/07/06 08:37:14;;;;;;;3.85;2.30;;;;;;;26.33;44.82;99248.25;5153099;27;20091;-62
2022/07/06 08:39:41;;;;;;;4.18;2.35;;;;;;;26.35;44.94;99259.69;5153048;27;20096;-62
2022/07/06 08:42:08;;;;;;;2.40;2.20;;;;;;;26.36;44.83;99264.03;5149715;27;20039;-62
2022/07/06 08:44:35;;;;;;;4.18;2.20;;;;;;;26.37;44.72;99255.06;5128618;27;20092;-62
2022/07/06 08:47:06;;;;;;;3.40;2.35;;;;;;;26.39;44.60;99263.84;5132659;27;20178;-62
2022/07/06 08:49:33;;;;;;;3.80;2.65;;;;;;;26.41;44.88;99271.75;5132377;27;20470;-62
2022/07/06 08:52:00;;;;;;;3.42;2.30;;;;;;;26.41;44.59;99279.75;5132300;27;20047;-62
2022/07/06 08:54:27;;;;;;;3.55;2.50;;;;;;;26.42;44.35;99284.97;5139158;27;20047;-62
2022/07/06 08:56:54;;;;;;;4.75;2.40;;;;;;;26.44;44.35;99282.19;5147447;27;20040;-62
2022/07/06 08:59:21;;;;;;;3.35;2.30;;;;;;;26.45;44.39;99281.25;5132228;28;20458;-62
2022/07/06 09:01:48;;;;;;;3.58;2.20;;;;;;;26.47;44.00;99287.34;5132745;28;20099;-62
2022/07/06 09:04:17;;;;;;;3.65;2.28;;;;;;;26.50;44.15;99287.09;5132453;28;20051;-63
2022/07/06 09:06:44;;;;;;;4.72;2.40;;;;;;;26.50;44.10;99282.63;5132513;28;20039;-63
2022/07/06 09:09:11;;;;;;;3.15;2.45;;;;;;;26.50;44.12;99290.66;5132003;28;20493;-63
2022/07/06 09:11:38;;;;;;;5.03;2.40;;;;;;;26.53;44.07;99294.91;5144653;27;20051;-62
2022/07/06 09:14:05;;;;;;;4.40;2.40;;;;;;;26.55;44.06;99300.16;5132986;27;20039;-62
2022/07/06 09:16:32;;;;;;;4.15;2.55;;;;;;;26.57;44.01;99290.22;5132140;28;20044;-61
2022/07/06 09:18:59;;;;;;;4.00;2.20;;;;;;;26.57;43.84;99301.75;5114168;28;20054;-62
2022/07/06 09:21:30;;;;;;;2.60;2.10;;;;;;;26.58;43.58;99302.59;5134148;27;20107;-62
2022/07/06 09:23:57;;;;;;;3.83;2.20;;;;;;;26.60;43.75;99290.00;5149425;27;20074;-62
2022/07/06 09:26:24;;;;;;;3.72;2.42;;;;;;;26.59;43.40;99278.47;5132084;28;20047;-62
2022/07/06 09:28:50;;;;;;;2.95;2.10;;;;;;;26.61;43.37;99281.03;5132346;27;20107;-62
2022/07/06 09:31:17;;;;;;;6.82;2.38;;;;;;;26.62;43.24;99283.59;5131713;27;20494;-62
2022/07/06 09:33:57;;;;;;;3.85;2.30;;;;;;;26.63;43.41;99285.28;5132465;28;20124;-63
2022/07/06 09:36:42;;;;;;;3.53;2.20;;;;;;;26.64;43.13;99267.47;5134756;27;20039;-62
2022/07/06 09:39:21;;;;;;;;;;;;;;;26.65;42.79;99277.16;5136351;27;20046;-62
2022/07/06 09:41:48;;;;;;;2.30;2.10;;;;;;;26.67;42.92;99275.25;5142797;27;19978;-62
2022/07/06 09:44:20;;;;;;;2.95;1.90;;;;;;;26.68;42.82;99287.66;5156696;27;20472;-62
2022/07/06 09:46:47;;;;;;;3.13;1.85;;;;;;;26.67;42.78;99280.59;5141056;27;20047;-62
2022/07/06 09:49:14;;;;;;;2.78;1.98;;;;;;;26.69;42.89;99287.53;5145413;27;20091;-63
2022/07/06 09:51:42;;;;;;;2.22;1.90;;;;;;;26.73;42.56;99279.28;5135397;27;20483;-63
2022/07/06 09:54:09;;;;;;;2.60;2.00;;;;;;;26.74;42.59;99270.31;5135249;27;20066;-62
2022/07/06 09:56:39;;;;;;;2.10;1.92;;;;;;;26.75;42.41;99270.19;5135646;27;20039;-62
2022/07/06 09:59:10;;;;;;;2.65;1.80;;;;;;;26.77;42.16;99268.25;5135401;27;20086;-62
2022/07/06 10:01:37;;;;;;;2.42;2.00;;;;;;;26.80;42.28;99277.91;5135884;27;20055;-62
2022/07/06 10:04:04;;;;;;;2.35;2.10;;;;;;;26.81;42.16;99267.09;5149292;27;20047;-62
2022/07/06 10:06:31;;;;;;;2.33;2.03;;;;;;;26.82;42.10;99268.78;5145205;27;20050;-62
2022/07/06 10:09:00;;;;;;;3.15;2.10;;;;;;;26.85;42.13;99265.03;5145016;27;20094;-62
2022/07/06 10:11:27;;;;;;;2.90;1.92;;;;;;;26.88;42.24;99270.16;5164262;27;20108;-62
2022/07/06 10:13:55;;;;;;;2.63;2.00;;;;;;;26.89;42.37;99264.72;5156090;27;20050;-63
2022/07/06 10:16:22;;;;;;;2.40;1.90;;;;;;;26.89;42.01;99267.38;5156194;27;20077;-62
2022/07/06 10:18:49;;;;;;;2.97;2.05;;;;;;;26.90;42.28;99271.75;5155895;27;20042;-62
2022/07/06 10:21:16;;;;;;;3.83;2.20;;;;;;;26.92;41.67;99267.13;5166968;27;20114;-62
2022/07/06 10:23:43;;;;;;;3.33;2.20;;;;;;;26.93;41.49;99265.34;5163756;27;20042;-63
2022/07/06 10:26:11;;;;;;;3.67;2.00;;;;;;;26.97;41.48;99260.59;5165194;27;20489;-63
2022/07/06 10:28:38;;;;;;;2.40;2.00;;;;;;;26.98;41.49;99257.81;5155836;27;20095;-62
2022/07/06 10:31:05;;;;;;;5.13;2.20;;;;;;;26.99;40.97;99258.69;5155838;27;20092;-62
2022/07/06 10:33:32;;;;;;;3.85;2.22;;;;;;;27.00;40.95;99255.03;5155485;27;20082;-62
2022/07/06 10:35:59;;;;;;;2.88;2.17;;;;;;;27.02;41.17;99253.09;5155996;27;20043;-62
2022/07/06 10:38:31;;;;;;;4.25;2.10;;;;;;;27.04;40.74;99259.19;5155575;27;20055;-62
2022/07/06 10:41:05;;;;;;;6.47;2.20;;;;;;;27.05;40.36;99263.59;5140784;27;20046;-63
2022/07/06 10:43:37;;;;;;;4.67;2.10;;;;;;;27.06;40.18;99260.81;5168009;27;20046;-62
2022/07/06 10:46:08;;;;;;;4.25;2.20;;;;;;;27.08;40.53;99252.63;5155491;27;20820;-63
2022/07/06 10:48:38;;;;;;;2.85;2.17;;;;;;;27.10;40.46;99266.75;5166727;27;20076;-62
2022/07/06 10:51:05;;;;;;;3.50;2.40;;;;;;;27.09;40.38;99259.72;5175887;27;20046;-62
2022/07/06 10:53:34;;;;;;;5.93;2.70;;;;;;;27.10;39.92;99256.06;5175886;27;20050;-62
2022/07/06 10:56:04;;;;;;;2.60;2.30;;;;;;;27.11;40.02;99247.91;5169465;27;20046;-63
2022/07/06 10:58:50;;;;;;;2.45;2.20;;;;;;;27.12;39.77;99251.44;5155507;27;20046;-62
2022/07/06 11:01:18;;;;;;;4.55;2.40;;;;;;;27.13;39.90;99245.13;5171801;27;20057;-63
2022/07/06 11:03:46;;;;;;;3.60;2.40;;;;;;;27.15;39.76;99248.56;5166426;27;20046;-63
2022/07/06 11:06:14;;;;;;;6.28;2.53;;;;;;;27.15;39.69;99245.88;5173992;27;20725;-63
2022/07/06 11:08:49;;;;;;;5.03;2.25;;;;;;;27.17;39.42;99248.44;5173636;27;20104;-63
2022/07/06 11:11:17;;;;;;;4.70;2.30;;;;;;;27.17;39.12;99246.63;5176105;27;20110;-62
2022/07/06 11:13:56;;;;;;;4.90;2.30;;;;;;;27.19;38.76;99243.84;5157650;27;20133;-63
2022/07/06 11:16:25;;;;;;;3.35;2.33;;;;;;;27.19;39.26;99243.84;5170380;27;20095;-63
2022/07/06 11:19:09;;;;;;;5.68;2.42;;;;;;;27.19;38.86;99239.31;5160499;27;20046;-63
2022/07/06 11:21:46;;;;;;;3.17;2.20;;;;;;;27.20;38.96;99235.69;5146207;27;20050;-62
2022/07/06 11:24:14;;;;;;;3.33;2.30;;;;;;;27.21;38.86;99248.09;5175477;27;20038;-62
2022/07/06 11:26:42;;;;;;;4.43;2.47;;;;;;;27.22;38.42;99246.25;5158593;27;20496;-62
2022/07/06 11:29:10;;;;;;;3.72;2.50;;;;;;;27.22;38.90;99244.47;5154663;27;20181;-63
2022/07/06 11:31:38;;;;;;;4.82;2.30;;;;;;;27.23;38.52;99251.50;5154536;27;20046;-63
2022/07/06 11:34:05;;;;;;;3.17;2.28;;;;;;;27.23;37.89;99246.16;5154517;27;20078;-63
2022/07/06 11:36:32;;;;;;;3.10;2.22;;;;;;;27.24;38.35;99239.88;5154256;27;20042;-63
2022/07/06 11:39:00;;;;;;;5.78;2.40;;;;;;;27.23;38.16;99230.09;5162035;27;20207;-72